createdAt,value
2023-11-12T00:02:21.659Z,100671.59
2023-11-12T00:04:48.469Z,100669.41
2023-11-12T00:07:15.158Z,100685.03
2023-11-12T00:09:41.839Z,100677.03
2023-11-12T00:12:09.820Z,100684.53
2023-11-12T00:14:36.611Z,100687.47
2023-11-12T00:17:03.302Z,100680.63
2023-11-12T00:19:33.965Z,100680.41
2023-11-12T00:22:00.518Z,100686.94
2023-11-12T00:24:28.960Z,100680.75
2023-11-12T00:26:55.541Z,100681.19
2023-11-12T00:29:22.097Z,100675.94
2023-11-12T00:31:48.754Z,100670.13
2023-11-12T00:34:15.287Z,100681.06
2023-11-12T00:36:43.984Z,100676.63
2023-11-12T00:39:10.826Z,100668.53
2023-11-12T00:41:40.295Z,100666.47
2023-11-12T00:44:12.055Z,100674.34
2023-11-12T00:46:39.359Z,100665.69
2023-11-12T00:49:06.400Z,100664.88
2023-11-12T00:51:33.767Z,100664.09
2023-11-12T00:54:00.242Z,100676.78
2023-11-12T00:56:26.813Z,100679.84
2023-11-12T00:58:54.024Z,100679.63
2023-11-12T01:01:21.020Z,100676.69
2023-11-12T01:03:47.636Z,100666.34
2023-11-12T01:06:14.249Z,100672.19
2023-11-12T01:08:40.745Z,100668.53
2023-11-12T01:11:07.454Z,100672.31
2023-11-12T01:13:34.275Z,100667.66
2023-11-12T01:16:02.124Z,100670.41
2023-11-12T01:18:29.616Z,100666.75
2023-11-12T01:20:56.217Z,100670.94
2023-11-12T01:23:23.030Z,100661.03
2023-11-12T01:25:49.623Z,100657.38
2023-11-12T01:28:16.151Z,100651.34
2023-11-12T01:30:42.673Z,100653.16
2023-11-12T01:33:09.224Z,100661.03
2023-11-12T01:35:35.814Z,100653.16
2023-11-12T01:38:02.320Z,100662.41
2023-11-12T01:40:29.539Z,100657.16
2023-11-12T01:42:56.148Z,100646.44
2023-11-12T01:45:23.071Z,100642.00
2023-11-12T01:47:50.352Z,100638.78
2023-11-12T01:50:17.069Z,100650.53
2023-11-12T01:52:45.947Z,100653.00
2023-11-12T01:55:14.603Z,100653.09
2023-11-12T01:57:44.080Z,100652.16
2023-11-12T02:00:12.991Z,100654.22
2023-11-12T02:02:40.491Z,100649.09
2023-11-12T02:05:07.783Z,100653.16
2023-11-12T02:07:36.176Z,100652.00
2023-11-12T02:10:10.647Z,100649.69
2023-11-12T02:12:38.526Z,100646.56
2023-11-12T02:15:06.834Z,100647.44
2023-11-12T02:17:33.563Z,100653.38
2023-11-12T02:20:08.676Z,100646.00
2023-11-12T02:22:35.756Z,100653.13
2023-11-12T02:25:03.386Z,100644.47
2023-11-12T02:27:30.039Z,100650.75
2023-11-12T02:29:56.596Z,100651.75
2023-11-12T02:32:23.395Z,100655.69
2023-11-12T02:34:49.917Z,100655.69
2023-11-12T02:37:16.446Z,100648.25
2023-11-12T02:39:43.027Z,100642.28
2023-11-12T02:42:10.506Z,100647.56
2023-11-12T02:44:39.566Z,100648.81
2023-11-12T02:47:07.453Z,100643.78
2023-11-12T02:50:11.398Z,100650.69
2023-11-12T02:52:38.071Z,100644.22
2023-11-12T02:55:04.687Z,100644.16
2023-11-12T02:57:31.317Z,100653.44
2023-11-12T02:59:57.798Z,100645.81
2023-11-12T03:02:25.106Z,100657.44
2023-11-12T03:04:52.046Z,100659.06
2023-11-12T03:07:21.344Z,100652.81
2023-11-12T03:09:50.942Z,100654.63
2023-11-12T03:12:17.550Z,100650.22
2023-11-12T03:14:47.247Z,100644.50
2023-11-12T03:17:14.013Z,100636.34
2023-11-12T03:19:40.641Z,100641.16
2023-11-12T03:22:07.789Z,100644.97
2023-11-12T03:24:36.240Z,100642.81
2023-11-12T03:27:02.846Z,100648.91
2023-11-12T03:29:29.652Z,100650.13
2023-11-12T03:31:56.194Z,100641.41
2023-11-12T03:34:25.893Z,100640.00
2023-11-12T03:36:52.586Z,100644.38
2023-11-12T03:39:19.403Z,100650.25
2023-11-12T03:41:45.981Z,100644.63
2023-11-12T03:44:12.443Z,100654.88
2023-11-12T03:46:39.053Z,100657.69
2023-11-12T03:49:08.688Z,100654.69
2023-11-12T03:51:35.479Z,100644.91
2023-11-12T03:54:03.368Z,100643.78
2023-11-12T03:56:31.015Z,100646.44
2023-11-12T03:58:58.702Z,100649.44
2023-11-12T04:01:25.848Z,100646.22
2023-11-12T04:03:53.367Z,100649.16
2023-11-12T04:06:20.936Z,100652.72
2023-11-12T04:08:50.270Z,100646.34
2023-11-12T04:11:16.885Z,100652.72
2023-11-12T04:13:43.414Z,100655.72
2023-11-12T04:16:10.169Z,100652.47
2023-11-12T04:18:37.922Z,100650.03
2023-11-12T04:21:07.070Z,100646.19
2023-11-12T04:23:33.902Z,100648.81
2023-11-12T04:26:00.555Z,100651.50
2023-11-12T04:28:28.488Z,100644.16
2023-11-12T04:30:56.190Z,100641.75
2023-11-12T04:33:22.945Z,100648.16
2023-11-12T04:35:51.028Z,100642.16
2023-11-12T04:38:18.139Z,100637.00
2023-11-12T04:40:45.613Z,100640.81
2023-11-12T04:43:13.656Z,100640.00
2023-11-12T04:45:40.378Z,100647.81
2023-11-12T04:48:07.096Z,100646.00
2023-11-12T04:50:34.238Z,100643.81
2023-11-12T04:53:01.153Z,100646.25
2023-11-12T04:55:27.701Z,100645.44
2023-11-12T04:57:54.262Z,100646.25
2023-11-12T05:00:21.064Z,100650.66
2023-11-12T05:02:47.670Z,100650.88
2023-11-12T05:05:14.489Z,100652.69
2023-11-12T05:07:41.042Z,100657.16
2023-11-12T05:10:09.804Z,100660.31
2023-11-12T05:12:36.530Z,100666.59
2023-11-12T05:15:03.411Z,100668.16
2023-11-12T05:17:30.266Z,100676.00
2023-11-12T05:19:57.161Z,100671.97
2023-11-12T05:22:23.797Z,100663.50
2023-11-12T05:24:52.526Z,100674.34
2023-11-12T05:27:19.865Z,100672.72
2023-11-12T05:29:46.389Z,100676.31
2023-11-12T05:32:12.934Z,100679.13
2023-11-12T05:34:40.397Z,100670.44
2023-11-12T05:37:07.230Z,100683.06
2023-11-12T05:39:33.980Z,100679.44
2023-11-12T05:42:00.583Z,100676.63
2023-11-12T05:44:27.104Z,100684.63
2023-11-12T05:46:53.583Z,100686.81
2023-11-12T05:49:20.470Z,100686.97
2023-11-12T05:51:47.012Z,100689.81
2023-11-12T05:54:15.761Z,100680.34
2023-11-12T05:56:43.924Z,100687.94
2023-11-12T05:59:10.420Z,100689.09
2023-11-12T06:01:36.984Z,100690.09
2023-11-12T06:04:03.894Z,100697.94
2023-11-12T06:06:30.576Z,100694.31
2023-11-12T06:08:57.779Z,100698.72
2023-11-12T06:11:24.413Z,100698.94
2023-11-12T06:13:50.871Z,100695.31
2023-11-12T06:16:17.454Z,100697.09
2023-11-12T06:18:44.434Z,100698.06
2023-11-12T06:21:11.207Z,100694.41
2023-11-12T06:23:42.809Z,100695.00
2023-11-12T06:26:09.317Z,100690.19
2023-11-12T06:28:35.816Z,100696.44
2023-11-12T06:31:02.295Z,100694.41
2023-11-12T06:33:28.950Z,100698.38
2023-11-12T06:35:55.821Z,100698.97
2023-11-12T06:38:22.397Z,100691.72
2023-11-12T06:40:49.736Z,100689.09
2023-11-12T06:43:16.245Z,100703.59
2023-11-12T06:45:43.210Z,100699.66
2023-11-12T06:48:09.749Z,100713.16
2023-11-12T06:50:36.265Z,100712.16
2023-11-12T06:53:04.515Z,100709.91
2023-11-12T06:55:31.370Z,100713.94
2023-11-12T06:57:57.826Z,100713.72
2023-11-12T07:00:24.356Z,100706.00
2023-11-12T07:02:50.887Z,100715.25
2023-11-12T07:05:18.034Z,100718.66
2023-11-12T07:07:44.645Z,100720.88
2023-11-12T07:10:13.188Z,100727.50
2023-11-12T07:12:39.816Z,100720.81
2023-11-12T07:15:07.277Z,100721.22
2023-11-12T07:17:36.904Z,100725.22
2023-11-12T07:20:03.990Z,100717.94
2023-11-12T07:22:31.790Z,100726.97
2023-11-12T07:25:01.060Z,100725.97
2023-11-12T07:27:27.861Z,100727.94
2023-11-12T07:29:54.465Z,100730.34
2023-11-12T07:32:22.173Z,100735.13
2023-11-12T07:34:49.161Z,100735.59
2023-11-12T07:37:15.853Z,100740.59
2023-11-12T07:39:42.557Z,100738.75
2023-11-12T07:42:09.113Z,100739.00
2023-11-12T07:44:36.675Z,100737.75
2023-11-12T07:47:05.842Z,100735.94
2023-11-12T07:49:33.141Z,100740.81
2023-11-12T07:51:59.674Z,100735.00
2023-11-12T07:54:27.341Z,100739.22
2023-11-12T07:56:53.911Z,100741.38
2023-11-12T07:59:20.438Z,100742.56
2023-11-12T08:01:50.949Z,100752.19
2023-11-12T08:04:18.602Z,100753.38
2023-11-12T08:06:50.524Z,100752.31
2023-11-12T08:09:17.247Z,100759.88
2023-11-12T08:11:43.884Z,100762.47
2023-11-12T08:14:10.620Z,100756.38
2023-11-12T08:16:37.952Z,100755.94
2023-11-12T08:19:04.728Z,100757.31
2023-11-12T08:21:31.291Z,100755.88
2023-11-12T08:23:57.907Z,100758.66
2023-11-12T08:26:24.394Z,100760.63
2023-11-12T08:28:52.736Z,100767.03
2023-11-12T08:31:19.284Z,100776.41
2023-11-12T08:33:45.864Z,100780.19
2023-11-12T08:36:12.483Z,100776.94
2023-11-12T08:38:38.970Z,100779.50
2023-11-12T08:41:07.005Z,100779.84
2023-11-12T08:43:33.741Z,100769.75
2023-11-12T08:46:00.626Z,100774.91
2023-11-12T08:48:32.845Z,100769.78
2023-11-12T08:51:00.222Z,100773.94
2023-11-12T08:53:28.688Z,100771.03
2023-11-12T08:55:55.352Z,100771.38
2023-11-12T08:58:22.881Z,100772.78
2023-11-12T09:00:49.699Z,100772.78
2023-11-12T09:03:16.562Z,100775.16
2023-11-12T09:05:43.171Z,100772.69
2023-11-12T09:08:09.673Z,100773.81
2023-11-12T09:10:36.188Z,100776.81
2023-11-12T09:13:02.767Z,100777.97
2023-11-12T09:15:29.277Z,100777.75
2023-11-12T09:17:56.708Z,100777.31
2023-11-12T09:20:24.112Z,100775.47
2023-11-12T09:22:50.916Z,100782.34
2023-11-12T09:25:17.632Z,100779.94
2023-11-12T09:27:46.226Z,100789.03
2023-11-12T09:30:13.162Z,100787.66
2023-11-12T09:32:40.151Z,100784.44
2023-11-12T09:35:07.799Z,100790.50
2023-11-12T09:37:34.399Z,100797.56
2023-11-12T09:40:01.363Z,100787.06
2023-11-12T09:42:29.823Z,100786.06
2023-11-12T09:44:57.081Z,100789.03
2023-11-12T09:47:43.620Z,100783.72
2023-11-12T09:50:13.380Z,100799.38
2023-11-12T09:52:39.968Z,100789.91
2023-11-12T09:55:08.176Z,100783.03
2023-11-12T09:57:34.706Z,100786.56
2023-11-12T10:00:03.566Z,100797.47
2023-11-12T10:02:32.945Z,100799.31
2023-11-12T10:05:00.954Z,100789.38
2023-11-12T10:07:27.604Z,100791.06
2023-11-12T10:09:55.482Z,100787.75
2023-11-12T10:12:22.840Z,100796.56
2023-11-12T10:15:02.220Z,100794.28
2023-11-12T10:17:28.835Z,100795.44
2023-11-12T10:19:59.872Z,100793.16
2023-11-12T10:22:38.361Z,100794.75
2023-11-12T10:25:05.433Z,100797.59
2023-11-12T10:27:32.137Z,100798.28
2023-11-12T10:30:17.719Z,100802.41
2023-11-12T10:32:44.290Z,100801.47
2023-11-12T10:35:11.692Z,100798.72
2023-11-12T10:37:56.737Z,100815.75
2023-11-12T10:40:24.377Z,100814.16
2023-11-12T10:42:59.208Z,100808.91
2023-11-12T10:45:28.939Z,100812.09
2023-11-12T10:47:59.803Z,100791.66
2023-11-12T10:50:26.892Z,100803.97
2023-11-12T10:52:54.551Z,100797.03
2023-11-12T10:55:23.368Z,100799.75
2023-11-12T10:57:53.473Z,100802.06
2023-11-12T11:00:21.209Z,100797.94
2023-11-12T11:02:48.973Z,100797.84
2023-11-12T11:05:17.681Z,100796.34
2023-11-12T11:07:49.415Z,100788.81
2023-11-12T11:10:17.229Z,100795.19
2023-11-12T11:12:44.227Z,100801.16
2023-11-12T11:15:42.612Z,100801.13
2023-11-12T11:18:32.071Z,100792.88
2023-11-12T11:21:07.523Z,100795.81
2023-11-12T11:23:50.626Z,100798.22
2023-11-12T11:26:29.436Z,100795.94
2023-11-12T11:29:11.775Z,100801.31
2023-11-12T11:32:02.164Z,100797.19
2023-11-12T11:34:40.240Z,100803.56
2023-11-12T11:37:07.382Z,100807.00
2023-11-12T11:39:34.839Z,100805.75
2023-11-12T11:42:07.924Z,100807.91
2023-11-12T11:44:41.875Z,100808.25
2023-11-12T11:47:19.454Z,100807.97
2023-11-12T11:49:49.744Z,100810.16
2023-11-12T11:52:21.715Z,100810.72
2023-11-12T11:55:13.339Z,100814.84
2023-11-12T11:57:52.390Z,100813.81
2023-11-12T12:00:19.200Z,100814.59
2023-11-12T12:02:46.829Z,100817.25
2023-11-12T12:05:16.359Z,100819.88
2023-11-12T12:07:46.126Z,100823.88
2023-11-12T12:10:30.457Z,100825.34
2023-11-12T12:12:57.603Z,100826.81
2023-11-12T12:15:24.262Z,100828.63
2023-11-12T12:17:50.957Z,100834.69
2023-11-12T12:20:17.596Z,100828.88
2023-11-12T12:22:44.418Z,100830.94
2023-11-12T12:25:11.015Z,100834.50
2023-11-12T12:27:38.636Z,100837.59
2023-11-12T12:30:09.110Z,100834.63
2023-11-12T12:32:38.287Z,100840.69
2023-11-12T12:35:07.694Z,100835.34
2023-11-12T12:37:34.648Z,100840.75
2023-11-12T12:40:15.025Z,100854.59
2023-11-12T12:42:44.419Z,100844.19
2023-11-12T12:45:17.947Z,100849.91
2023-11-12T12:47:45.670Z,100847.97
2023-11-12T12:50:27.171Z,100846.03
2023-11-12T12:53:13.793Z,100841.38
2023-11-12T12:55:41.104Z,100846.31
2023-11-12T12:58:08.281Z,100845.03
2023-11-12T13:00:37.143Z,100842.53
2023-11-12T13:03:04.369Z,100846.28
2023-11-12T13:05:30.947Z,100845.84
2023-11-12T13:07:57.976Z,100852.22
2023-11-12T13:10:24.902Z,100850.63
2023-11-12T13:12:53.992Z,100849.03
2023-11-12T13:15:22.487Z,100851.31
2023-11-12T13:17:49.633Z,100842.06
2023-11-12T13:20:16.253Z,100841.81
2023-11-12T13:22:43.113Z,100844.91
2023-11-12T13:25:12.451Z,100850.16
2023-11-12T13:27:40.295Z,100848.22
2023-11-12T13:30:08.073Z,100843.41
2023-11-12T13:32:35.467Z,100842.25
2023-11-12T13:35:02.606Z,100842.13
2023-11-12T13:37:31.124Z,100845.22
2023-11-12T13:39:57.968Z,100843.41
2023-11-12T13:42:24.697Z,100844.09
2023-11-12T13:44:54.102Z,100851.06
2023-11-12T13:47:22.253Z,100850.69
2023-11-12T13:49:48.930Z,100851.16
2023-11-12T13:52:16.220Z,100846.78
2023-11-12T13:54:43.202Z,100850.00
2023-11-12T13:57:10.303Z,100840.16
2023-11-12T13:59:37.994Z,100853.88
2023-11-12T14:02:04.863Z,100848.16
2023-11-12T14:04:33.156Z,100856.19
2023-11-12T14:06:59.834Z,100857.09
2023-11-12T14:09:26.881Z,100870.47
2023-11-12T14:11:53.511Z,100862.59
2023-11-12T14:14:20.144Z,100864.88
2023-11-12T14:16:47.829Z,100864.06
2023-11-12T20:26:45.688Z,100982.56
2023-11-12T20:29:13.316Z,100975.53
2023-11-12T20:31:43.167Z,100972.72
2023-11-12T20:34:13.024Z,100970.72
2023-11-12T20:36:40.494Z,100970.72
2023-11-12T20:39:16.268Z,100969.91
2023-11-12T20:41:46.605Z,100971.50
2023-11-12T20:44:14.341Z,100978.94
2023-11-12T20:46:45.188Z,100973.94
2023-11-12T20:49:17.809Z,100977.34
2023-11-12T20:51:46.234Z,100965.69
2023-11-12T20:54:19.368Z,100956.03
2023-11-12T20:56:46.180Z,100971.72
2023-11-12T20:59:14.021Z,100984.19
2023-11-12T21:01:40.979Z,100982.97
2023-11-12T21:04:11.318Z,100981.75
2023-11-12T21:06:40.463Z,100989.41
2023-11-12T21:09:09.487Z,100980.56
2023-11-12T21:11:40.854Z,100961.25
2023-11-12T21:14:12.130Z,100955.22
2023-11-12T21:16:39.547Z,100947.59
2023-11-12T21:19:06.969Z,100959.44
2023-11-12T21:21:34.230Z,100961.69
2023-11-12T21:24:06.931Z,100977.16
2023-11-12T21:26:34.760Z,100977.34
2023-11-12T21:29:01.399Z,100973.34
2023-11-12T21:31:28.178Z,100962.50
2023-11-12T21:33:54.947Z,100971.13
2023-11-12T21:36:21.607Z,100969.31
2023-11-12T21:38:48.281Z,100977.16
2023-11-12T21:41:14.946Z,100977.94
2023-11-12T21:43:41.933Z,100990.22
2023-11-12T21:46:10.363Z,100985.00
2023-11-12T21:48:38.889Z,101003.47
2023-11-12T21:51:07.099Z,101007.66
2023-11-12T21:53:36.593Z,101002.63
2023-11-12T21:56:05.175Z,101017.25
2023-11-12T21:58:32.785Z,101028.88
2023-11-12T22:00:59.617Z,101021.66
2023-11-12T22:03:27.726Z,101025.06
2023-11-12T22:05:55.268Z,101019.47
2023-11-12T22:08:23.520Z,101028.72
2023-11-12T22:10:53.034Z,101025.94
2023-11-12T22:13:20.117Z,101020.91
2023-11-12T22:15:50.535Z,101030.75
2023-11-12T22:18:18.525Z,101026.75
2023-11-12T22:20:45.194Z,101017.91
2023-11-12T22:23:12.601Z,101015.50
2023-11-12T22:25:39.816Z,101003.44
2023-11-12T22:28:06.928Z,100985.38
2023-11-12T22:30:33.508Z,100985.19
2023-11-12T22:33:00.116Z,100985.19
2023-11-12T22:35:26.751Z,100984.78
2023-11-12T22:37:53.297Z,100995.44
2023-11-12T22:40:21.124Z,101013.09
2023-11-12T22:42:47.947Z,101009.28
2023-11-12T22:45:14.744Z,101006.88
2023-11-12T22:47:42.409Z,101008.88
2023-11-12T22:50:10.428Z,100999.66
2023-11-12T22:52:37.421Z,100985.19
2023-11-12T22:55:04.742Z,100975.75
2023-11-12T22:57:33.566Z,100975.31
2023-11-12T23:00:05.837Z,100960.84
2023-11-12T23:02:33.764Z,100943.56
2023-11-12T23:05:01.367Z,100951.22
2023-11-12T23:07:28.448Z,100959.66
2023-11-12T23:09:56.098Z,100956.03
2023-11-12T23:12:22.637Z,100965.28
2023-11-12T23:14:52.151Z,100972.72
2023-11-12T23:17:22.508Z,100977.75
2023-11-12T23:19:49.198Z,100982.16
2023-11-12T23:22:16.450Z,100959.84
2023-11-12T23:24:42.995Z,100937.75
2023-11-12T23:27:09.835Z,100935.53
2023-11-12T23:29:36.760Z,100940.75
2023-11-12T23:32:09.488Z,100967.69
2023-11-12T23:34:36.744Z,100967.50
2023-11-12T23:37:06.473Z,100968.09
2023-11-12T23:39:33.400Z,100963.06
2023-11-12T23:41:59.994Z,100951.63
2023-11-12T23:44:26.599Z,100946.81
2023-11-12T23:46:53.180Z,100952.81
2023-11-12T23:49:19.792Z,100942.78
2023-11-12T23:51:46.576Z,100955.41
2023-11-12T23:54:13.118Z,100951.19
2023-11-12T23:56:39.666Z,100948.97
2023-11-12T23:59:06.188Z,100943.34
